sensor_id;sensor_type;location;lat;lon;timestamp;temperature;humidity
13354;DHT22;6746;50.892;4.064;2022-09-12T00:00:30;15.10;99.90
13354;DHT22;6746;50.892;4.064;2022-09-12T00:03:10;15.10;99.90
13354;DHT22;6746;50.892;4.064;2022-09-12T00:05:49;15.00;99.90
13354;DHT22;6746;50.892;4.064;2022-09-12T00:08:37;15.00;99.90
13354;DHT22;6746;50.892;4.064;2022-09-12T00:11:25;15.00;99.90
13354;DHT22;6746;50.892;4.064;2022-09-12T00:14:09;15.00;99.90
13354;DHT22;6746;50.892;4.064;2022-09-12T00:16:47;15.00;99.90
13354;DHT22;6746;50.892;4.064;2022-09-12T00:19:35;15.00;99.90
13354;DHT22;6746;50.892;4.064;2022-09-12T00:22:23;14.90;99.90
13354;DHT22;6746;50.892;4.064;2022-09-12T00:25:11;14.90;99.90
13354;DHT22;6746;50.892;4.064;2022-09-12T00:27:55;14.90;99.90
13354;DHT22;6746;50.892;4.064;2022-09-12T00:30:34;14.80;99.90
13354;DHT22;6746;50.892;4.064;2022-09-12T00:33:22;14.90;99.90
13354;DHT22;6746;50.892;4.064;2022-09-12T00:36:03;14.90;99.90
13354;DHT22;6746;50.892;4.064;2022-09-12T00:38:38;14.90;99.90
13354;DHT22;6746;50.892;4.064;2022-09-12T00:41:30;14.80;99.90
13354;DHT22;6746;50.892;4.064;2022-09-12T00:47:13;14.80;99.90
13354;DHT22;6746;50.892;4.064;2022-09-12T00:50:06;14.80;99.90
13354;DHT22;6746;50.892;4.064;2022-09-12T00:52:47;14.80;99.90
13354;DHT22;6746;50.892;4.064;2022-09-12T00:55:39;14.80;99.90
13354;DHT22;6746;50.892;4.064;2022-09-12T00:58:27;14.80;99.90
13354;DHT22;6746;50.892;4.064;2022-09-12T01:01:01;14.80;99.90
13354;DHT22;6746;50.892;4.064;2022-09-12T01:03:49;14.80;99.90
13354;DHT22;6746;50.892;4.064;2022-09-12T01:06:29;14.80;99.90
13354;DHT22;6746;50.892;4.064;2022-09-12T01:09:06;14.70;99.90
13354;DHT22;6746;50.892;4.064;2022-09-12T01:11:54;14.60;99.90
13354;DHT22;6746;50.892;4.064;2022-09-12T01:14:35;14.60;99.90
13354;DHT22;6746;50.892;4.064;2022-09-12T01:17:13;14.60;99.90
13354;DHT22;6746;50.892;4.064;2022-09-12T01:20:10;14.60;99.90
13354;DHT22;6746;50.892;4.064;2022-09-12T01:26:22;14.60;99.90
13354;DHT22;6746;50.892;4.064;2022-09-12T01:32:20;14.50;99.90
13354;DHT22;6746;50.892;4.064;2022-09-12T01:35:22;14.50;99.90
13354;DHT22;6746;50.892;4.064;2022-09-12T01:38:12;14.50;99.90
13354;DHT22;6746;50.892;4.064;2022-09-12T01:43:35;14.50;99.90
13354;DHT22;6746;50.892;4.064;2022-09-12T01:48:58;14.50;99.90
13354;DHT22;6746;50.892;4.064;2022-09-12T01:51:38;14.40;99.90
13354;DHT22;6746;50.892;4.064;2022-09-12T01:54:32;14.50;99.90
13354;DHT22;6746;50.892;4.064;2022-09-12T01:57:10;14.40;99.90
13354;DHT22;6746;50.892;4.064;2022-09-12T01:59:48;14.40;99.90
13354;DHT22;6746;50.892;4.064;2022-09-12T02:02:36;14.40;99.90
13354;DHT22;6746;50.892;4.064;2022-09-12T02:08:18;14.30;99.90
13354;DHT22;6746;50.892;4.064;2022-09-12T02:10:57;14.20;99.90
13354;DHT22;6746;50.892;4.064;2022-09-12T02:13:41;14.20;99.90
13354;DHT22;6746;50.892;4.064;2022-09-12T02:16:42;14.20;99.90
13354;DHT22;6746;50.892;4.064;2022-09-12T02:19:23;14.20;99.90
13354;DHT22;6746;50.892;4.064;2022-09-12T02:22:01;14.10;99.90
13354;DHT22;6746;50.892;4.064;2022-09-12T02:24:42;14.10;99.90
13354;DHT22;6746;50.892;4.064;2022-09-12T02:27:23;14.10;99.90
13354;DHT22;6746;50.892;4.064;2022-09-12T02:30:10;14.00;99.90
13354;DHT22;6746;50.892;4.064;2022-09-12T02:35:56;14.00;99.90
13354;DHT22;6746;50.892;4.064;2022-09-12T02:38:49;14.00;99.90
13354;DHT22;6746;50.892;4.064;2022-09-12T02:41:18;13.90;99.90
13354;DHT22;6746;50.892;4.064;2022-09-12T02:43:58;13.90;99.90
13354;DHT22;6746;50.892;4.064;2022-09-12T02:46:45;13.80;99.90
13354;DHT22;6746;50.892;4.064;2022-09-12T02:49:20;13.80;99.90
13354;DHT22;6746;50.892;4.064;2022-09-12T02:51:58;13.70;99.90
13354;DHT22;6746;50.892;4.064;2022-09-12T02:54:36;13.70;99.90
13354;DHT22;6746;50.892;4.064;2022-09-12T02:57:15;13.70;99.90
13354;DHT22;6746;50.892;4.064;2022-09-12T02:59:57;13.80;99.90
13354;DHT22;6746;50.892;4.064;2022-09-12T03:05:34;13.80;99.90
13354;DHT22;6746;50.892;4.064;2022-09-12T03:08:16;13.70;99.90
13354;DHT22;6746;50.892;4.064;2022-09-12T03:17:26;13.60;99.90
13354;DHT22;6746;50.892;4.064;2022-09-12T03:23:25;13.50;99.90
13354;DHT22;6746;50.892;4.064;2022-09-12T03:26:26;13.40;99.90
13354;DHT22;6746;50.892;4.064;2022-09-12T03:29:03;13.40;99.90
13354;DHT22;6746;50.892;4.064;2022-09-12T03:31:50;13.40;99.90
13354;DHT22;6746;50.892;4.064;2022-09-12T03:34:28;13.30;99.90
13354;DHT22;6746;50.892;4.064;2022-09-12T03:37:16;13.40;99.90
13354;DHT22;6746;50.892;4.064;2022-09-12T03:39:57;13.40;99.90
13354;DHT22;6746;50.892;4.064;2022-09-12T03:42:35;13.40;99.90
13354;DHT22;6746;50.892;4.064;2022-09-12T03:45:16;13.40;99.90
13354;DHT22;6746;50.892;4.064;2022-09-12T03:47:54;13.40;99.90
13354;DHT22;6746;50.892;4.064;2022-09-12T03:50:42;13.40;99.90
13354;DHT22;6746;50.892;4.064;2022-09-12T03:53:20;13.30;99.90
13354;DHT22;6746;50.892;4.064;2022-09-12T03:55:58;13.30;99.90
13354;DHT22;6746;50.892;4.064;2022-09-12T03:58:39;13.30;99.90
13354;DHT22;6746;50.892;4.064;2022-09-12T04:01:17;13.20;99.90
13354;DHT22;6746;50.892;4.064;2022-09-12T04:04:05;13.20;99.90
13354;DHT22;6746;50.892;4.064;2022-09-12T04:06:49;13.20;99.90
13354;DHT22;6746;50.892;4.064;2022-09-12T04:09:27;13.20;99.90
13354;DHT22;6746;50.892;4.064;2022-09-12T04:12:06;13.20;99.90
13354;DHT22;6746;50.892;4.064;2022-09-12T04:14:44;13.20;99.90
13354;DHT22;6746;50.892;4.064;2022-09-12T04:17:22;13.30;99.90
13354;DHT22;6746;50.892;4.064;2022-09-12T04:20:00;13.20;99.90
13354;DHT22;6746;50.892;4.064;2022-09-12T04:22:48;13.20;99.90
13354;DHT22;6746;50.892;4.064;2022-09-12T04:25:35;13.10;99.90
13354;DHT22;6746;50.892;4.064;2022-09-12T04:28:19;13.10;99.90
13354;DHT22;6746;50.892;4.064;2022-09-12T04:31:10;13.00;99.90
13354;DHT22;6746;50.892;4.064;2022-09-12T04:33:55;13.00;99.90
13354;DHT22;6746;50.892;4.064;2022-09-12T04:36:32;13.00;99.90
13354;DHT22;6746;50.892;4.064;2022-09-12T04:39:11;12.90;99.90
13354;DHT22;6746;50.892;4.064;2022-09-12T04:41:59;12.90;99.90
13354;DHT22;6746;50.892;4.064;2022-09-12T04:44:46;12.90;99.90
13354;DHT22;6746;50.892;4.064;2022-09-12T04:47:25;12.80;99.90
13354;DHT22;6746;50.892;4.064;2022-09-12T04:50:03;12.80;99.90
13354;DHT22;6746;50.892;4.064;2022-09-12T04:52:41;12.80;99.90
13354;DHT22;6746;50.892;4.064;2022-09-12T04:55:20;12.70;99.90
13354;DHT22;6746;50.892;4.064;2022-09-12T04:58:00;12.70;99.90
13354;DHT22;6746;50.892;4.064;2022-09-12T05:00:39;12.70;99.90
13354;DHT22;6746;50.892;4.064;2022-09-12T05:03:26;12.70;99.90
13354;DHT22;6746;50.892;4.064;2022-09-12T05:06:07;12.70;99.90
13354;DHT22;6746;50.892;4.064;2022-09-12T05:08:45;12.70;99.90
13354;DHT22;6746;50.892;4.064;2022-09-12T05:11:24;12.60;99.90
13354;DHT22;6746;50.892;4.064;2022-09-12T05:14:01;12.70;99.90
13354;DHT22;6746;50.892;4.064;2022-09-12T05:16:42;12.60;99.90
13354;DHT22;6746;50.892;4.064;2022-09-12T05:19:10;12.60;99.90
13354;DHT22;6746;50.892;4.064;2022-09-12T05:21:48;12.60;99.90
13354;DHT22;6746;50.892;4.064;2022-09-12T05:24:26;12.70;99.90
13354;DHT22;6746;50.892;4.064;2022-09-12T05:26:57;12.70;99.90
13354;DHT22;6746;50.892;4.064;2022-09-12T05:29:26;12.70;99.90
13354;DHT22;6746;50.892;4.064;2022-09-12T05:31:54;12.70;99.90
13354;DHT22;6746;50.892;4.064;2022-09-12T05:34:23;12.60;99.90
13354;DHT22;6746;50.892;4.064;2022-09-12T05:37:04;12.60;99.90
13354;DHT22;6746;50.892;4.064;2022-09-12T05:39:32;12.60;99.90
13354;DHT22;6746;50.892;4.064;2022-09-12T05:42:10;12.60;99.90
13354;DHT22;6746;50.892;4.064;2022-09-12T05:44:48;12.60;99.90
13354;DHT22;6746;50.892;4.064;2022-09-12T05:47:22;12.60;99.90
13354;DHT22;6746;50.892;4.064;2022-09-12T05:49:50;12.70;99.90
13354;DHT22;6746;50.892;4.064;2022-09-12T05:52:29;12.70;99.90
13354;DHT22;6746;50.892;4.064;2022-09-12T05:55:00;12.70;99.90
13354;DHT22;6746;50.892;4.064;2022-09-12T05:57:36;12.70;99.90
13354;DHT22;6746;50.892;4.064;2022-09-12T06:00:05;12.70;99.90
13354;DHT22;6746;50.892;4.064;2022-09-12T06:02:38;12.70;99.90
13354;DHT22;6746;50.892;4.064;2022-09-12T06:05:10;12.80;99.90
13354;DHT22;6746;50.892;4.064;2022-09-12T06:07:46;12.80;99.90
13354;DHT22;6746;50.892;4.064;2022-09-12T06:10:17;12.90;99.90
13354;DHT22;6746;50.892;4.064;2022-09-12T06:12:55;13.00;99.90
13354;DHT22;6746;50.892;4.064;2022-09-12T06:15:33;13.20;99.90
13354;DHT22;6746;50.892;4.064;2022-09-12T06:18:01;13.30;99.90
13354;DHT22;6746;50.892;4.064;2022-09-12T06:20:30;13.40;99.90
13354;DHT22;6746;50.892;4.064;2022-09-12T06:23:03;13.50;99.90
13354;DHT22;6746;50.892;4.064;2022-09-12T06:25:32;13.60;99.90
13354;DHT22;6746;50.892;4.064;2022-09-12T06:28:11;13.70;99.90
13354;DHT22;6746;50.892;4.064;2022-09-12T06:30:42;13.80;99.90
13354;DHT22;6746;50.892;4.064;2022-09-12T06:33:10;13.90;99.90
13354;DHT22;6746;50.892;4.064;2022-09-12T06:35:39;14.00;99.90
13354;DHT22;6746;50.892;4.064;2022-09-12T06:38:18;14.20;99.90
13354;DHT22;6746;50.892;4.064;2022-09-12T06:40:56;14.30;99.90
13354;DHT22;6746;50.892;4.064;2022-09-12T06:43:30;14.40;99.90
13354;DHT22;6746;50.892;4.064;2022-09-12T06:45:58;14.60;99.90
13354;DHT22;6746;50.892;4.064;2022-09-12T06:48:27;14.80;99.90
13354;DHT22;6746;50.892;4.064;2022-09-12T06:51:03;15.10;99.90
13354;DHT22;6746;50.892;4.064;2022-09-12T06:53:31;15.30;99.90
13354;DHT22;6746;50.892;4.064;2022-09-12T06:56:14;15.60;99.90
13354;DHT22;6746;50.892;4.064;2022-09-12T06:58:51;15.80;99.90
13354;DHT22;6746;50.892;4.064;2022-09-12T07:01:30;16.00;99.90
13354;DHT22;6746;50.892;4.064;2022-09-12T07:04:07;16.30;99.90
13354;DHT22;6746;50.892;4.064;2022-09-12T07:06:45;16.50;99.90
13354;DHT22;6746;50.892;4.064;2022-09-12T07:09:24;16.70;99.90
13354;DHT22;6746;50.892;4.064;2022-09-12T07:12:02;17.00;99.90
13354;DHT22;6746;50.892;4.064;2022-09-12T07:14:40;17.30;99.90
13354;DHT22;6746;50.892;4.064;2022-09-12T07:17:12;17.50;99.90
13354;DHT22;6746;50.892;4.064;2022-09-12T07:19:41;17.70;99.90
13354;DHT22;6746;50.892;4.064;2022-09-12T07:22:20;17.80;99.90
13354;DHT22;6746;50.892;4.064;2022-09-12T07:24:48;18.10;99.90
13354;DHT22;6746;50.892;4.064;2022-09-12T07:27:17;18.30;99.90
13354;DHT22;6746;50.892;4.064;2022-09-12T07:29:46;18.50;99.90
13354;DHT22;6746;50.892;4.064;2022-09-12T07:32:15;18.70;99.90
13354;DHT22;6746;50.892;4.064;2022-09-12T07:34:44;18.90;99.90
13354;DHT22;6746;50.892;4.064;2022-09-12T07:37:13;18.90;99.90
13354;DHT22;6746;50.892;4.064;2022-09-12T07:39:52;19.00;99.90
13354;DHT22;6746;50.892;4.064;2022-09-12T07:42:30;18.90;99.90
13354;DHT22;6746;50.892;4.064;2022-09-12T07:45:08;19.00;99.90
13354;DHT22;6746;50.892;4.064;2022-09-12T07:47:56;19.20;99.90
13354;DHT22;6746;50.892;4.064;2022-09-12T07:50:40;19.30;99.90
13354;DHT22;6746;50.892;4.064;2022-09-12T07:53:13;19.40;99.90
13354;DHT22;6746;50.892;4.064;2022-09-12T07:55:42;19.50;99.90
13354;DHT22;6746;50.892;4.064;2022-09-12T07:58:21;19.70;99.90
13354;DHT22;6746;50.892;4.064;2022-09-12T08:03:42;20.10;99.90
13354;DHT22;6746;50.892;4.064;2022-09-12T08:06:11;20.20;99.90
13354;DHT22;6746;50.892;4.064;2022-09-12T08:09:24;20.30;99.90
13354;DHT22;6746;50.892;4.064;2022-09-12T08:12:04;20.40;99.90
13354;DHT22;6746;50.892;4.064;2022-09-12T08:14:41;20.50;99.90
13354;DHT22;6746;50.892;4.064;2022-09-12T08:17:10;20.60;99.90
13354;DHT22;6746;50.892;4.064;2022-09-12T08:19:47;20.60;99.90
13354;DHT22;6746;50.892;4.064;2022-09-12T08:22:15;20.70;99.90
13354;DHT22;6746;50.892;4.064;2022-09-12T08:24:44;20.80;99.90
13354;DHT22;6746;50.892;4.064;2022-09-12T08:27:13;20.70;99.90
13354;DHT22;6746;50.892;4.064;2022-09-12T08:29:45;20.80;99.90
13354;DHT22;6746;50.892;4.064;2022-09-12T08:32:14;21.00;99.90
13354;DHT22;6746;50.892;4.064;2022-09-12T08:34:53;21.20;99.90
13354;DHT22;6746;50.892;4.064;2022-09-12T08:37:29;21.40;99.90
13354;DHT22;6746;50.892;4.064;2022-09-12T08:39:58;21.40;99.90
13354;DHT22;6746;50.892;4.064;2022-09-12T08:42:48;21.50;99.90
13354;DHT22;6746;50.892;4.064;2022-09-12T08:45:35;21.60;99.90
13354;DHT22;6746;50.892;4.064;2022-09-12T08:47:56;21.70;99.90
13354;DHT22;6746;50.892;4.064;2022-09-12T08:50:30;21.80;99.90
13354;DHT22;6746;50.892;4.064;2022-09-12T08:53:13;22.00;99.90
13354;DHT22;6746;50.892;4.064;2022-09-12T08:55:45;22.00;99.90
13354;DHT22;6746;50.892;4.064;2022-09-12T08:58:19;22.20;99.90
13354;DHT22;6746;50.892;4.064;2022-09-12T09:01:07;22.40;99.90
13354;DHT22;6746;50.892;4.064;2022-09-12T09:13:49;22.70;99.90
13354;DHT22;6746;50.892;4.064;2022-09-12T09:18:57;22.80;99.90
13354;DHT22;6746;50.892;4.064;2022-09-12T09:21:28;22.90;99.90
13354;DHT22;6746;50.892;4.064;2022-09-12T09:24:05;23.00;99.90
13354;DHT22;6746;50.892;4.064;2022-09-12T09:26:44;23.20;99.90
13354;DHT22;6746;50.892;4.064;2022-09-12T09:29:21;23.20;99.90
13354;DHT22;6746;50.892;4.064;2022-09-12T09:32:02;23.20;99.90
13354;DHT22;6746;50.892;4.064;2022-09-12T09:34:49;23.40;99.90
13354;DHT22;6746;50.892;4.064;2022-09-12T09:37:37;23.60;99.90
13354;DHT22;6746;50.892;4.064;2022-09-12T09:43:09;23.60;99.90
13354;DHT22;6746;50.892;4.064;2022-09-12T09:45:45;23.50;99.90
13354;DHT22;6746;50.892;4.064;2022-09-12T09:48:24;23.50;99.90
13354;DHT22;6746;50.892;4.064;2022-09-12T09:51:04;23.70;99.90
13354;DHT22;6746;50.892;4.064;2022-09-12T09:53:49;23.60;99.90
13354;DHT22;6746;50.892;4.064;2022-09-12T09:56:30;23.60;99.90
13354;DHT22;6746;50.892;4.064;2022-09-12T09:58:56;23.60;99.90
13354;DHT22;6746;50.892;4.064;2022-09-12T10:01:25;23.60;99.90
13354;DHT22;6746;50.892;4.064;2022-09-12T10:03:54;23.60;99.90
13354;DHT22;6746;50.892;4.064;2022-09-12T10:06:33;23.70;99.90
13354;DHT22;6746;50.892;4.064;2022-09-12T10:11:50;24.00;99.90
13354;DHT22;6746;50.892;4.064;2022-09-12T10:14:40;24.00;99.90
13354;DHT22;6746;50.892;4.064;2022-09-12T10:17:22;24.20;99.90
13354;DHT22;6746;50.892;4.064;2022-09-12T10:19:50;24.20;99.90
13354;DHT22;6746;50.892;4.064;2022-09-12T10:22:20;24.30;99.90
13354;DHT22;6746;50.892;4.064;2022-09-12T10:24:53;24.30;99.90
13354;DHT22;6746;50.892;4.064;2022-09-12T10:27:26;24.50;99.90
13354;DHT22;6746;50.892;4.064;2022-09-12T10:30:05;24.40;99.90
13354;DHT22;6746;50.892;4.064;2022-09-12T10:32:45;24.50;99.90
13354;DHT22;6746;50.892;4.064;2022-09-12T10:35:17;24.50;99.90
13354;DHT22;6746;50.892;4.064;2022-09-12T10:37:54;24.50;99.90
13354;DHT22;6746;50.892;4.064;2022-09-12T10:40:35;24.70;99.90
13354;DHT22;6746;50.892;4.064;2022-09-12T10:43:17;24.80;99.90
13354;DHT22;6746;50.892;4.064;2022-09-12T10:45:58;24.80;99.90
13354;DHT22;6746;50.892;4.064;2022-09-12T10:48:35;24.80;99.90
13354;DHT22;6746;50.892;4.064;2022-09-12T10:53:52;24.90;99.90
13354;DHT22;6746;50.892;4.064;2022-09-12T10:56:33;25.00;99.90
13354;DHT22;6746;50.892;4.064;2022-09-12T10:59:23;25.00;99.90
13354;DHT22;6746;50.892;4.064;2022-09-12T11:02:26;25.10;99.90
13354;DHT22;6746;50.892;4.064;2022-09-12T11:14:41;25.00;99.90
13354;DHT22;6746;50.892;4.064;2022-09-12T11:17:28;25.00;99.90
13354;DHT22;6746;50.892;4.064;2022-09-12T11:33:02;25.00;99.90
13354;DHT22;6746;50.892;4.064;2022-09-12T11:37:51;25.00;99.90
13354;DHT22;6746;50.892;4.064;2022-09-12T11:40:36;25.00;99.90
13354;DHT22;6746;50.892;4.064;2022-09-12T11:43:34;25.10;99.90
13354;DHT22;6746;50.892;4.064;2022-09-12T11:46:28;25.20;99.90
13354;DHT22;6746;50.892;4.064;2022-09-12T11:51:51;25.30;99.90
13354;DHT22;6746;50.892;4.064;2022-09-12T12:03:14;25.40;99.90
13354;DHT22;6746;50.892;4.064;2022-09-12T12:06:06;25.40;99.90
13354;DHT22;6746;50.892;4.064;2022-09-12T12:08:36;25.40;99.90
13354;DHT22;6746;50.892;4.064;2022-09-12T12:11:01;25.50;99.90
13354;DHT22;6746;50.892;4.064;2022-09-12T12:16:07;25.50;99.90
13354;DHT22;6746;50.892;4.064;2022-09-12T12:18:59;25.30;99.90
13354;DHT22;6746;50.892;4.064;2022-09-12T12:34:32;25.50;99.90
13354;DHT22;6746;50.892;4.064;2022-09-12T12:48:00;25.70;99.90
13354;DHT22;6746;50.892;4.064;2022-09-12T12:50:27;25.60;99.90
13354;DHT22;6746;50.892;4.064;2022-09-12T12:53:02;25.80;99.90
13354;DHT22;6746;50.892;4.064;2022-09-12T12:55:31;25.90;99.90
13354;DHT22;6746;50.892;4.064;2022-09-12T12:57:59;26.00;99.90
13354;DHT22;6746;50.892;4.064;2022-09-12T13:00:38;26.10;99.90
13354;DHT22;6746;50.892;4.064;2022-09-12T13:03:21;26.00;99.90
13354;DHT22;6746;50.892;4.064;2022-09-12T13:05:45;26.20;99.90
13354;DHT22;6746;50.892;4.064;2022-09-12T13:08:30;26.20;99.90
13354;DHT22;6746;50.892;4.064;2022-09-12T13:11:15;26.20;99.90
13354;DHT22;6746;50.892;4.064;2022-09-12T13:13:44;26.30;99.90
13354;DHT22;6746;50.892;4.064;2022-09-12T13:16:09;26.40;99.90
13354;DHT22;6746;50.892;4.064;2022-09-12T13:18:42;26.30;99.90
13354;DHT22;6746;50.892;4.064;2022-09-12T13:21:17;26.40;99.90
13354;DHT22;6746;50.892;4.064;2022-09-12T13:23:44;26.50;99.90
13354;DHT22;6746;50.892;4.064;2022-09-12T13:26:20;26.70;99.90
13354;DHT22;6746;50.892;4.064;2022-09-12T13:28:42;26.70;99.90
13354;DHT22;6746;50.892;4.064;2022-09-12T13:31:25;26.70;99.90
13354;DHT22;6746;50.892;4.064;2022-09-12T13:33:54;26.80;99.90
13354;DHT22;6746;50.892;4.064;2022-09-12T13:36:56;26.70;99.90
13354;DHT22;6746;50.892;4.064;2022-09-12T13:39:46;26.50;99.90
13354;DHT22;6746;50.892;4.064;2022-09-12T13:45:22;26.40;99.90
13354;DHT22;6746;50.892;4.064;2022-09-12T13:48:00;26.30;99.90
13354;DHT22;6746;50.892;4.064;2022-09-12T13:50:39;26.30;99.90
13354;DHT22;6746;50.892;4.064;2022-09-12T13:53:13;26.40;99.90
13354;DHT22;6746;50.892;4.064;2022-09-12T13:55:41;26.30;99.90
13354;DHT22;6746;50.892;4.064;2022-09-12T13:58:29;26.40;99.90
13354;DHT22;6746;50.892;4.064;2022-09-12T14:01:13;26.30;99.90
13354;DHT22;6746;50.892;4.064;2022-09-12T14:03:52;26.30;99.90
13354;DHT22;6746;50.892;4.064;2022-09-12T14:06:47;26.30;99.90
13354;DHT22;6746;50.892;4.064;2022-09-12T14:09:21;26.30;99.90
13354;DHT22;6746;50.892;4.064;2022-09-12T14:15:30;26.40;99.90
13354;DHT22;6746;50.892;4.064;2022-09-12T14:17:47;26.40;99.90
13354;DHT22;6746;50.892;4.064;2022-09-12T14:20:14;26.30;99.90
13354;DHT22;6746;50.892;4.064;2022-09-12T14:22:43;26.20;99.90
13354;DHT22;6746;50.892;4.064;2022-09-12T14:25:15;26.30;99.90
13354;DHT22;6746;50.892;4.064;2022-09-12T14:27:47;26.40;99.90
13354;DHT22;6746;50.892;4.064;2022-09-12T14:30:30;26.40;99.90
13354;DHT22;6746;50.892;4.064;2022-09-12T14:35:49;26.40;99.90
13354;DHT22;6746;50.892;4.064;2022-09-12T14:38:20;26.50;99.90
13354;DHT22;6746;50.892;4.064;2022-09-12T14:41:04;26.40;99.90
13354;DHT22;6746;50.892;4.064;2022-09-12T14:43:32;26.30;99.90
13354;DHT22;6746;50.892;4.064;2022-09-12T14:46:01;26.30;99.90
13354;DHT22;6746;50.892;4.064;2022-09-12T14:48:57;26.40;99.90
13354;DHT22;6746;50.892;4.064;2022-09-12T14:51:37;26.50;99.90
13354;DHT22;6746;50.892;4.064;2022-09-12T14:54:01;26.40;99.90
13354;DHT22;6746;50.892;4.064;2022-09-12T14:56:40;26.30;99.90
13354;DHT22;6746;50.892;4.064;2022-09-12T14:59:25;26.20;99.90
13354;DHT22;6746;50.892;4.064;2022-09-12T15:15:50;26.40;99.90
13354;DHT22;6746;50.892;4.064;2022-09-12T15:18:30;26.40;99.90
13354;DHT22;6746;50.892;4.064;2022-09-12T15:21:02;26.30;99.90
13354;DHT22;6746;50.892;4.064;2022-09-12T15:23:45;26.20;99.90
13354;DHT22;6746;50.892;4.064;2022-09-12T15:26:14;26.20;99.90
13354;DHT22;6746;50.892;4.064;2022-09-12T15:28:52;26.20;99.90
13354;DHT22;6746;50.892;4.064;2022-09-12T15:31:29;26.20;99.90
13354;DHT22;6746;50.892;4.064;2022-09-12T15:33:58;26.20;99.90
13354;DHT22;6746;50.892;4.064;2022-09-12T15:36:26;26.20;99.90
13354;DHT22;6746;50.892;4.064;2022-09-12T15:38:55;26.20;99.90
13354;DHT22;6746;50.892;4.064;2022-09-12T15:41:33;26.10;99.90
13354;DHT22;6746;50.892;4.064;2022-09-12T15:44:04;26.10;99.90
13354;DHT22;6746;50.892;4.064;2022-09-12T15:46:33;26.10;99.90
13354;DHT22;6746;50.892;4.064;2022-09-12T15:49:02;26.20;99.90
13354;DHT22;6746;50.892;4.064;2022-09-12T15:51:31;26.10;99.90
13354;DHT22;6746;50.892;4.064;2022-09-12T15:54:00;26.00;99.90
13354;DHT22;6746;50.892;4.064;2022-09-12T15:56:32;25.90;99.90
13354;DHT22;6746;50.892;4.064;2022-09-12T15:59:01;25.70;99.90
13354;DHT22;6746;50.892;4.064;2022-09-12T16:01:30;25.60;99.90
13354;DHT22;6746;50.892;4.064;2022-09-12T16:04:00;25.50;99.90
13354;DHT22;6746;50.892;4.064;2022-09-12T16:06:28;25.40;99.90
13354;DHT22;6746;50.892;4.064;2022-09-12T16:08:57;25.40;99.90
13354;DHT22;6746;50.892;4.064;2022-09-12T16:11:29;25.40;99.90
13354;DHT22;6746;50.892;4.064;2022-09-12T16:13:58;25.40;99.90
13354;DHT22;6746;50.892;4.064;2022-09-12T16:16:36;25.40;99.90
13354;DHT22;6746;50.892;4.064;2022-09-12T16:19:15;25.40;99.90
13354;DHT22;6746;50.892;4.064;2022-09-12T16:21:53;25.40;99.90
13354;DHT22;6746;50.892;4.064;2022-09-12T16:24:31;25.40;99.90
13354;DHT22;6746;50.892;4.064;2022-09-12T16:27:10;25.40;99.90
13354;DHT22;6746;50.892;4.064;2022-09-12T16:29:57;25.40;99.90
13354;DHT22;6746;50.892;4.064;2022-09-12T16:32:28;25.40;99.90
13354;DHT22;6746;50.892;4.064;2022-09-12T16:34:58;25.40;99.90
13354;DHT22;6746;50.892;4.064;2022-09-12T16:37:30;25.50;99.90
13354;DHT22;6746;50.892;4.064;2022-09-12T16:39:59;25.60;99.90
13354;DHT22;6746;50.892;4.064;2022-09-12T16:42:30;25.60;99.90
13354;DHT22;6746;50.892;4.064;2022-09-12T16:44:59;25.60;99.90
13354;DHT22;6746;50.892;4.064;2022-09-12T16:47:28;25.60;99.90
13354;DHT22;6746;50.892;4.064;2022-09-12T16:49:57;25.60;99.90
13354;DHT22;6746;50.892;4.064;2022-09-12T16:52:32;25.50;99.90
13354;DHT22;6746;50.892;4.064;2022-09-12T16:55:00;25.40;99.90
13354;DHT22;6746;50.892;4.064;2022-09-12T16:57:38;25.40;99.90
13354;DHT22;6746;50.892;4.064;2022-09-12T17:00:14;25.30;99.90
13354;DHT22;6746;50.892;4.064;2022-09-12T17:02:43;25.20;99.90
13354;DHT22;6746;50.892;4.064;2022-09-12T17:05:15;25.10;99.90
13354;DHT22;6746;50.892;4.064;2022-09-12T17:07:44;25.00;99.90
13354;DHT22;6746;50.892;4.064;2022-09-12T17:10:13;24.90;99.90
13354;DHT22;6746;50.892;4.064;2022-09-12T17:12:44;24.90;99.90
13354;DHT22;6746;50.892;4.064;2022-09-12T17:15:24;24.80;99.90
13354;DHT22;6746;50.892;4.064;2022-09-12T17:18:08;24.70;99.90
13354;DHT22;6746;50.892;4.064;2022-09-12T17:20:47;24.70;99.90
13354;DHT22;6746;50.892;4.064;2022-09-12T17:23:25;24.60;99.90
13354;DHT22;6746;50.892;4.064;2022-09-12T17:26:03;24.60;99.90
13354;DHT22;6746;50.892;4.064;2022-09-12T17:28:35;24.50;99.90
13354;DHT22;6746;50.892;4.064;2022-09-12T17:31:04;24.40;99.90
13354;DHT22;6746;50.892;4.064;2022-09-12T17:33:55;24.30;99.90
13354;DHT22;6746;50.892;4.064;2022-09-12T17:36:24;24.20;99.90
13354;DHT22;6746;50.892;4.064;2022-09-12T17:38:55;24.10;99.90
13354;DHT22;6746;50.892;4.064;2022-09-12T17:41:34;24.10;99.90
13354;DHT22;6746;50.892;4.064;2022-09-12T17:44:13;23.90;99.90
13354;DHT22;6746;50.892;4.064;2022-09-12T17:46:50;23.90;99.90
13354;DHT22;6746;50.892;4.064;2022-09-12T17:49:24;23.80;99.90
13354;DHT22;6746;50.892;4.064;2022-09-12T17:51:55;23.70;99.90
13354;DHT22;6746;50.892;4.064;2022-09-12T17:54:27;23.60;99.90
13354;DHT22;6746;50.892;4.064;2022-09-12T17:56:56;23.50;99.90
13354;DHT22;6746;50.892;4.064;2022-09-12T17:59:34;23.40;99.90
13354;DHT22;6746;50.892;4.064;2022-09-12T18:02:13;23.30;99.90
13354;DHT22;6746;50.892;4.064;2022-09-12T18:04:51;23.20;99.90
13354;DHT22;6746;50.892;4.064;2022-09-12T18:07:30;23.00;99.90
13354;DHT22;6746;50.892;4.064;2022-09-12T18:10:07;22.90;99.90
13354;DHT22;6746;50.892;4.064;2022-09-12T18:12:45;22.80;99.90
13354;DHT22;6746;50.892;4.064;2022-09-12T18:15:22;22.80;99.90
13354;DHT22;6746;50.892;4.064;2022-09-12T18:17:51;22.70;99.90
13354;DHT22;6746;50.892;4.064;2022-09-12T18:20:30;22.60;99.90
13354;DHT22;6746;50.892;4.064;2022-09-12T18:23:13;22.50;99.90
13354;DHT22;6746;50.892;4.064;2022-09-12T18:26:01;22.50;99.90
13354;DHT22;6746;50.892;4.064;2022-09-12T18:28:36;22.30;99.90
13354;DHT22;6746;50.892;4.064;2022-09-12T18:31:14;22.30;99.90
13354;DHT22;6746;50.892;4.064;2022-09-12T18:33:54;22.30;99.90
13354;DHT22;6746;50.892;4.064;2022-09-12T18:36:32;22.20;99.90
13354;DHT22;6746;50.892;4.064;2022-09-12T18:39:13;22.10;99.90
13354;DHT22;6746;50.892;4.064;2022-09-12T18:41:51;22.00;99.90
13354;DHT22;6746;50.892;4.064;2022-09-12T18:44:32;21.90;99.90
13354;DHT22;6746;50.892;4.064;2022-09-12T18:47:10;21.80;99.90
13354;DHT22;6746;50.892;4.064;2022-09-12T18:49:51;21.80;99.90
13354;DHT22;6746;50.892;4.064;2022-09-12T18:52:29;21.70;99.90
13354;DHT22;6746;50.892;4.064;2022-09-12T18:55:17;21.60;99.90
13354;DHT22;6746;50.892;4.064;2022-09-12T18:58:06;21.50;99.90
13354;DHT22;6746;50.892;4.064;2022-09-12T19:00:44;21.40;99.90
13354;DHT22;6746;50.892;4.064;2022-09-12T19:03:22;21.30;99.90
13354;DHT22;6746;50.892;4.064;2022-09-12T19:06:06;21.20;99.90
13354;DHT22;6746;50.892;4.064;2022-09-12T19:08:47;21.20;99.90
13354;DHT22;6746;50.892;4.064;2022-09-12T19:11:36;21.10;99.90
13354;DHT22;6746;50.892;4.064;2022-09-12T19:14:19;21.10;99.90